Time;durP1;ratioP1;P1;durP2;ratioP2;P2;SDS_P1;SDS_P2;PMS_P1;PMS_P2;Temp;Humidity;BMP_temperature;BMP_pressure;BME280_temperature;BME280_humidity;BME280_pressure;Samples;Min_cycle;Max_cycle;Signal;HPM_P1;HPM_P2
2021/10/09 00:00:14;;;;;;;14.79;11.82;;;;;;;10.69;82.40;100266.47;2331936;68;20898;-79
2021/10/09 00:03:17;;;;;;;17.40;12.09;;;;;;;10.67;82.54;100263.88;2335927;68;20249;-80
2021/10/09 00:06:20;;;;;;;21.99;12.60;;;;;;;10.66;82.52;100258.66;2336115;68;20636;-80
2021/10/09 00:09:23;;;;;;;22.42;14.41;;;;;;;10.64;82.52;100255.19;2334484;68;20174;-79
2021/10/09 00:12:27;;;;;;;21.15;13.70;;;;;;;10.62;82.46;100262.09;2335632;68;20213;-79
2021/10/09 00:15:29;;;;;;;18.05;12.89;;;;;;;10.58;82.45;100255.97;2333405;66;24461;-79
2021/10/09 00:18:32;;;;;;;19.48;13.74;;;;;;;10.54;82.25;100260.28;2336426;68;20155;-79
2021/10/09 00:21:35;;;;;;;19.81;12.86;;;;;;;10.49;82.47;100259.38;2333471;68;20605;-79
2021/10/09 00:24:37;;;;;;;17.45;12.98;;;;;;;10.45;82.61;100268.00;2335614;68;20235;-79
2021/10/09 00:27:40;;;;;;;18.64;12.60;;;;;;;10.36;82.55;100262.69;2332470;68;20273;-80
2021/10/09 00:30:43;;;;;;;19.51;12.93;;;;;;;10.33;82.49;100254.00;2333832;68;20215;-79
2021/10/09 00:33:46;;;;;;;17.89;13.82;;;;;;;10.21;82.64;100258.19;2336677;68;20151;-79
2021/10/09 00:36:48;;;;;;;18.48;13.23;;;;;;;10.16;83.04;100254.66;2335469;68;20984;-80
2021/10/09 00:39:51;;;;;;;17.85;13.06;;;;;;;10.13;83.22;100257.22;2333292;68;20251;-80
2021/10/09 00:42:53;;;;;;;18.38;13.32;;;;;;;10.09;83.15;100255.47;2335786;68;20139;-80
2021/10/09 00:45:57;;;;;;;18.41;13.63;;;;;;;10.05;83.24;100258.84;2334785;68;20582;-79
2021/10/09 00:49:00;;;;;;;21.61;13.65;;;;;;;10.04;83.36;100262.28;2336255;68;20135;-80
2021/10/09 00:52:05;;;;;;;18.21;13.64;;;;;;;10.02;83.24;100247.56;2334737;68;20196;-80
2021/10/09 00:55:09;;;;;;;20.92;14.15;;;;;;;9.98;83.51;100244.94;2336051;68;20244;-79
2021/10/09 00:58:13;;;;;;;28.59;17.06;;;;;;;9.97;83.49;100247.53;2334684;68;20183;-80
2021/10/09 01:01:18;;;;;;;25.83;16.06;;;;;;;9.96;83.52;100245.78;2337084;68;20151;-80
2021/10/09 01:04:20;;;;;;;20.58;14.54;;;;;;;9.96;83.72;100245.78;2336847;68;20249;-79
2021/10/09 01:07:24;;;;;;;23.61;13.93;;;;;;;9.98;83.91;100238.88;2336306;68;20147;-80
2021/10/09 01:10:27;;;;;;;20.34;13.27;;;;;;;9.97;83.82;100248.38;2336893;68;20138;-80
2021/10/09 01:13:29;;;;;;;19.08;13.27;;;;;;;9.98;83.72;100244.06;2336539;68;20123;-80
2021/10/09 01:16:38;;;;;;;20.26;14.38;;;;;;;9.96;83.65;100249.25;2336497;68;20196;-79
2021/10/09 01:19:53;;;;;;;24.50;15.18;;;;;;;9.94;83.59;100243.16;2321063;68;20155;-79
2021/10/09 01:23:03;;;;;;;22.51;15.71;;;;;;;9.94;83.62;100244.91;2320510;68;20211;-79
2021/10/09 01:26:09;;;;;;;24.75;15.52;;;;;;;9.93;83.63;100245.75;2322529;69;20159;-79
2021/10/09 01:29:28;;;;;;;21.22;15.30;;;;;;;9.91;83.84;100245.72;2316070;69;20180;-79
2021/10/09 01:32:36;;;;;;;23.49;14.39;;;;;;;9.90;83.65;100244.00;2302797;69;20154;-79
2021/10/09 01:35:49;;;;;;;20.16;13.49;;;;;;;9.90;83.73;100240.53;2303792;69;20176;-79
2021/10/09 01:38:55;;;;;;;20.71;14.13;;;;;;;9.87;83.68;100250.84;2300816;69;20141;-79
2021/10/09 01:42:01;;;;;;;21.13;14.45;;;;;;;9.82;83.61;100244.75;2301584;69;20252;-79
2021/10/09 01:45:31;;;;;;;21.59;14.11;;;;;;;9.80;83.77;100238.66;2308394;69;20184;-79
2021/10/09 01:49:13;;;;;;;17.76;13.76;;;;;;;9.78;83.75;100242.97;2283453;69;20259;-79
2021/10/09 01:52:31;;;;;;;19.09;14.00;;;;;;;9.76;83.80;100242.06;2295497;69;20627;-79
2021/10/09 01:55:53;;;;;;;24.81;14.46;;;;;;;9.76;83.85;100237.75;2295298;69;20523;-80
2021/10/09 01:59:10;;;;;;;23.30;14.19;;;;;;;9.74;83.86;100236.88;2283338;70;20251;-79
2021/10/09 02:02:16;;;;;;;22.02;14.90;;;;;;;9.73;83.74;100235.13;2272286;70;20195;-79
2021/10/09 02:05:41;;;;;;;22.15;14.55;;;;;;;9.72;83.77;100233.41;2263902;70;20260;-79
2021/10/09 02:08:54;;;;;;;21.08;14.89;;;;;;;9.69;83.90;100234.22;2260105;71;20166;-79
2021/10/09 02:12:05;;;;;;;22.71;15.66;;;;;;;9.66;83.91;100220.34;2258167;71;20171;-79
2021/10/09 02:24:05;;;;;;;23.80;15.38;;;;;;;9.61;83.89;100222.88;2252868;71;20197;-79
2021/10/09 02:26:05;;;;;;;25.67;16.05;;;;;;;9.53;83.95;100218.47;2247828;71;21032;-79
2021/10/09 02:29:12;;;;;;;23.48;15.99;;;;;;;9.49;84.11;100222.69;2246998;71;20157;-79
2021/10/09 02:32:15;;;;;;;25.99;15.23;;;;;;;9.46;84.17;100224.38;2248687;71;20229;-79
2021/10/09 02:35:21;;;;;;;21.55;15.86;;;;;;;9.45;84.30;100223.53;2255629;70;20561;-79
2021/10/09 02:38:29;;;;;;;21.91;16.35;;;;;;;9.42;84.21;100217.44;2270695;70;20727;-80
2021/10/09 02:41:44;;;;;;;21.59;15.94;;;;;;;9.39;84.23;100213.94;2270379;70;20571;-80
2021/10/09 02:45:04;;;;;;;23.48;14.89;;;;;;;9.36;84.24;100213.03;2266554;70;20660;-80
2021/10/09 02:48:11;;;;;;;22.81;14.77;;;;;;;9.33;84.31;100207.78;2265378;70;20220;-79
2021/10/09 02:51:21;;;;;;;20.49;15.50;;;;;;;9.23;84.31;100211.13;2269462;70;20707;-80
2021/10/09 02:54:28;;;;;;;23.29;16.71;;;;;;;9.17;84.45;100214.50;2295412;69;20328;-79
2021/10/09 02:57:59;;;;;;;23.91;15.70;;;;;;;9.14;84.54;100210.97;2313749;69;20481;-80
2021/10/09 03:01:17;;;;;;;22.29;15.45;;;;;;;9.14;84.61;100206.66;2307506;69;20546;-80
2021/10/09 03:04:25;;;;;;;20.84;16.26;;;;;;;9.12;84.80;100210.97;2319094;69;20164;-79
2021/10/09 03:07:33;;;;;;;23.23;16.17;;;;;;;9.08;84.63;100206.59;2312906;69;20152;-79
2021/10/09 03:11:01;;;;;;;24.76;15.43;;;;;;;9.03;84.70;100208.25;2309383;69;20316;-79
2021/10/09 03:14:31;;;;;;;23.56;15.86;;;;;;;8.99;84.99;100202.16;2310056;69;20196;-80
2021/10/09 03:17:35;;;;;;;23.90;17.23;;;;;;;8.95;84.95;100205.53;2308725;69;20171;-79
2021/10/09 03:20:37;;;;;;;23.80;16.11;;;;;;;8.92;85.17;100200.31;2313555;69;20462;-80
2021/10/09 03:23:47;;;;;;;26.48;15.85;;;;;;;8.89;85.21;100214.94;2313933;69;20227;-79
2021/10/09 03:26:57;;;;;;;24.86;16.16;;;;;;;8.82;85.22;100216.56;2308220;69;20144;-80
2021/10/09 03:30:01;;;;;;;23.34;16.19;;;;;;;8.79;85.50;100206.13;2318277;69;21011;-80
2021/10/09 03:33:10;;;;;;;22.14;15.75;;;;;;;8.77;85.54;100203.53;2318003;69;20381;-79
2021/10/09 03:36:20;;;;;;;24.11;16.05;;;;;;;8.76;85.51;100204.38;2319884;68;20881;-79
2021/10/09 03:39:23;;;;;;;22.30;16.20;;;;;;;8.76;85.40;100211.28;2328865;68;20154;-79
2021/10/09 03:42:40;;;;;;;24.41;16.14;;;;;;;8.71;85.26;100207.75;2320839;68;20338;-80
2021/10/09 03:45:58;;;;;;;21.46;15.45;;;;;;;8.65;85.21;100205.06;2310349;68;20299;-79
2021/10/09 03:52:36;;;;;;;21.09;14.94;;;;;;;8.42;84.76;100209.81;2323004;68;20746;-79
2021/10/09 03:55:45;;;;;;;20.73;14.19;;;;;;;8.27;84.74;100210.44;2324521;68;20341;-79
2021/10/09 03:59:06;;;;;;;21.81;14.94;;;;;;;8.09;84.71;100212.69;2323261;68;20303;-80
2021/10/09 04:02:34;;;;;;;20.46;14.93;;;;;;;7.96;84.92;100219.31;2316493;68;20302;-79
2021/10/09 04:05:43;;;;;;;21.71;14.18;;;;;;;7.86;84.97;100210.50;2321176;68;20166;-80
2021/10/09 04:08:56;;;;;;;21.31;14.43;;;;;;;7.77;85.26;100217.22;2319212;68;20425;-80
2021/10/09 04:12:00;;;;;;;22.85;15.35;;;;;;;7.69;85.40;100216.16;2320357;68;20344;-79
2021/10/09 04:15:05;;;;;;;22.13;15.38;;;;;;;7.61;85.79;100210.00;2322668;68;20316;-79
2021/10/09 04:18:28;;;;;;;22.66;15.43;;;;;;;7.56;86.06;100217.66;2315061;68;20275;-79
2021/10/09 04:21:39;;;;;;;22.55;15.13;;;;;;;7.51;85.94;100214.94;2315324;68;20841;-79
2021/10/09 04:24:42;;;;;;;23.35;15.19;;;;;;;7.42;86.02;100214.78;2329434;68;20295;-80
2021/10/09 04:27:50;;;;;;;18.25;13.66;;;;;;;7.37;85.90;100213.81;2315744;68;20916;-80
2021/10/09 04:31:18;;;;;;;20.29;14.36;;;;;;;7.29;86.00;100217.91;2330167;68;20301;-80
2021/10/09 04:34:30;;;;;;;21.55;14.27;;;;;;;7.24;86.03;100227.28;2329773;68;20603;-79
2021/10/09 04:37:43;;;;;;;22.29;14.19;;;;;;;7.18;86.13;100222.88;2322736;68;20379;-80
2021/10/09 04:40:52;;;;;;;20.76;14.49;;;;;;;7.12;86.00;100229.59;2329776;68;20340;-80
2021/10/09 04:43:59;;;;;;;22.66;15.02;;;;;;;7.03;86.31;100227.69;2318717;68;20299;-79
2021/10/09 04:47:12;;;;;;;21.71;14.76;;;;;;;6.97;86.38;100230.09;2320990;68;20429;-79
2021/10/09 04:50:49;;;;;;;19.02;13.94;;;;;;;6.91;86.37;100225.66;2311714;69;21019;-79
2021/10/09 04:54:18;;;;;;;;;;;;;;;6.86;86.52;100232.44;2312654;69;20414;-79
2021/10/09 04:58:09;;;;;;;23.25;12.96;;;;;;;6.79;86.50;100230.53;2302356;69;20045;-80
2021/10/09 05:02:15;;;;;;;19.38;13.21;;;;;;;6.71;86.38;100232.06;2294975;69;20314;-80
2021/10/09 05:09:19;;;;;;;22.10;13.39;;;;;;;6.57;86.93;100223.97;2331795;68;20370;-79
2021/10/09 05:12:22;;;;;;;20.21;13.93;;;;;;;6.51;86.83;100229.00;2334794;68;20248;-80
2021/10/09 05:15:24;;;;;;;20.52;13.91;;;;;;;6.47;86.91;100221.16;2338209;66;31322;-80
2021/10/09 05:18:27;;;;;;;24.46;13.95;;;;;;;6.48;86.85;100225.47;2336100;68;20294;-80
2021/10/09 05:21:30;;;;;;;20.29;13.02;;;;;;;6.45;86.87;100220.19;2336910;68;20279;-80
2021/10/09 05:24:32;;;;;;;20.48;13.75;;;;;;;6.42;86.79;100223.59;2334921;68;20308;-80
2021/10/09 05:27:35;;;;;;;19.67;14.04;;;;;;;6.40;86.64;100221.81;2336916;68;20737;-80
2021/10/09 05:30:45;;;;;;;21.16;14.11;;;;;;;6.39;86.92;100220.06;2335081;66;32176;-80
2021/10/09 05:33:49;;;;;;;20.40;14.10;;;;;;;6.32;86.86;100226.78;2336974;68;20302;-79
2021/10/09 05:36:52;;;;;;;21.05;14.26;;;;;;;6.33;87.46;100231.09;2338573;68;20295;-80
2021/10/09 05:39:55;;;;;;;22.11;14.11;;;;;;;6.33;87.49;100231.09;2337902;68;20372;-80
2021/10/09 05:42:57;;;;;;;27.54;15.45;;;;;;;6.34;87.35;100235.41;2337152;68;20337;-80
2021/10/09 05:46:00;;;;;;;29.09;16.48;;;;;;;6.36;87.16;100234.63;2334572;68;20319;-79
2021/10/09 05:49:03;;;;;;;26.45;15.27;;;;;;;6.39;86.91;100238.13;2337939;68;20381;-81
2021/10/09 05:52:16;;;;;;;25.52;15.68;;;;;;;6.42;86.59;100240.75;2352324;68;20240;-81
2021/10/09 05:55:25;;;;;;;22.69;15.49;;;;;;;6.47;86.42;100244.34;2354181;68;20239;-80
2021/10/09 05:58:52;;;;;;;24.05;14.91;;;;;;;6.51;86.60;100248.75;2345072;68;20322;-80
2021/10/09 06:25:47;;;;;;;23.08;14.31;;;;;;;6.82;88.31;100266.75;2355961;68;20296;-80
2021/10/09 07:01:18;;;;;;;22.88;15.34;;;;;;;8.36;88.36;100287.38;2347225;65;35636;-80
2021/10/09 07:04:21;;;;;;;24.34;15.94;;;;;;;8.64;88.20;100292.22;2342034;68;20310;-81
2021/10/09 07:07:23;;;;;;;19.89;13.88;;;;;;;8.89;87.35;100293.50;2347853;68;20248;-80
2021/10/09 07:10:26;;;;;;;20.21;14.98;;;;;;;9.19;86.45;100293.13;2341079;68;20290;-80
2021/10/09 07:13:29;;;;;;;19.73;14.31;;;;;;;9.51;85.08;100301.38;2353370;68;20155;-82
2021/10/09 07:16:31;;;;;;;20.05;13.79;;;;;;;9.76;83.91;100289.63;2357760;66;38825;-81
2021/10/09 07:19:34;;;;;;;19.69;13.84;;;;;;;10.07;82.97;100301.28;2343048;68;20200;-82
2021/10/09 07:22:37;;;;;;;21.71;13.41;;;;;;;10.41;82.17;100302.56;2362668;68;20179;-81
2021/10/09 07:25:52;;;;;;;21.92;13.73;;;;;;;10.70;80.38;100302.84;2345399;68;20159;-81
2021/10/09 07:28:55;;;;;;;18.63;13.64;;;;;;;11.02;79.55;100302.28;2344041;68;20119;-81
2021/10/09 07:31:57;;;;;;;20.67;13.18;;;;;;;11.27;78.34;100299.00;2351718;68;20124;-81
2021/10/09 07:35:01;;;;;;;19.70;13.96;;;;;;;11.56;77.27;100298.34;2348676;68;20173;-81
2021/10/09 07:38:03;;;;;;;22.52;13.63;;;;;;;11.74;75.53;100307.13;2348225;68;20140;-80
2021/10/09 07:41:06;;;;;;;19.75;13.51;;;;;;;11.94;74.81;100307.25;2375408;68;20121;-80
2021/10/09 07:44:09;;;;;;;18.49;13.60;;;;;;;12.16;73.79;100309.94;2347440;68;20152;-80
2021/10/09 07:47:16;;;;;;;17.27;12.60;;;;;;;12.35;72.75;100307.41;2344096;65;25886;-82
2021/10/09 07:50:23;;;;;;;20.83;12.89;;;;;;;12.55;71.76;100315.28;2353089;68;20176;-82
2021/10/09 07:53:27;;;;;;;20.39;13.15;;;;;;;12.74;70.99;100317.91;2348290;68;20131;-81
2021/10/09 07:56:30;;;;;;;20.30;13.73;;;;;;;12.96;70.60;100315.34;2340300;68;20103;-81
2021/10/09 07:59:34;;;;;;;19.51;13.14;;;;;;;13.20;70.31;100318.88;2348388;68;20148;-81
2021/10/09 08:02:36;;;;;;;18.09;13.40;;;;;;;13.45;69.41;100317.97;2344127;65;36835;-82
2021/10/09 08:06:14;;;;;;;16.27;13.25;;;;;;;13.57;67.71;100311.88;2352132;68;20167;-82
2021/10/09 08:09:34;;;;;;;19.39;12.45;;;;;;;13.77;67.37;100317.91;2337566;68;20191;-81
2021/10/09 08:12:37;;;;;;;21.95;13.04;;;;;;;14.01;66.98;100311.78;2346077;68;20136;-82
2021/10/09 08:15:41;;;;;;;17.35;11.71;;;;;;;14.19;65.98;100313.44;2345946;68;20129;-81
2021/10/09 08:18:44;;;;;;;15.19;11.29;;;;;;;14.31;65.63;100321.19;2341207;68;20286;-81
2021/10/09 08:21:48;;;;;;;14.80;11.01;;;;;;;14.48;64.97;100315.94;2343707;68;20219;-82
2021/10/09 08:25:59;;;;;;;16.91;11.61;;;;;;;14.66;65.34;100317.56;2368582;68;20210;-81
2021/10/09 08:36:32;;;;;;;16.86;10.27;;;;;;;15.15;62.73;100317.22;2351338;68;20179;-81
2021/10/09 08:39:09;;;;;;;15.32;9.77;;;;;;;15.25;62.09;100313.63;2337679;68;20166;-82
2021/10/09 08:42:22;;;;;;;15.20;9.93;;;;;;;15.31;61.99;100316.22;2348919;68;20336;-81
2021/10/09 08:45:25;;;;;;;16.67;9.39;;;;;;;15.42;61.44;100322.19;2338317;66;37374;-80
2021/10/09 08:48:30;;;;;;;18.17;9.25;;;;;;;15.54;61.55;100323.84;2346311;68;20131;-81
2021/10/09 08:51:33;;;;;;;9.70;7.79;;;;;;;15.62;61.57;100328.19;2343062;68;20123;-81
2021/10/09 08:54:38;;;;;;;14.84;8.34;;;;;;;15.75;60.19;100323.66;2347304;68;20104;-82
2021/10/09 08:57:40;;;;;;;10.39;7.94;;;;;;;15.80;60.75;100319.25;2345750;68;20175;-81
2021/10/09 09:27:32;;;;;;;11.95;7.11;;;;;;;16.84;56.55;100307.44;2349502;68;20203;-80
2021/10/09 09:33:50;;;;;;;10.10;6.39;;;;;;;16.87;56.09;100304.75;2350414;68;20235;-81
2021/10/09 09:40:44;;;;;;;12.15;6.56;;;;;;;16.91;55.59;100303.84;2340098;68;20123;-81
2021/10/09 09:43:46;;;;;;;10.52;7.04;;;;;;;16.92;55.62;100295.94;2349177;68;20108;-81
2021/10/09 09:47:09;;;;;;;9.90;6.00;;;;;;;17.03;56.30;100293.13;2344656;66;24954;-81
2021/10/09 14:01:09;;;;;;;4.00;2.71;;;;;;;18.39;45.98;100202.03;2328270;68;1003920;-81
2021/10/09 14:04:13;;;;;;;3.89;2.53;;;;;;;18.37;46.36;100203.84;2344400;68;20173;-80
2021/10/09 14:07:20;;;;;;;4.81;2.81;;;;;;;18.35;46.39;100203.03;2344349;68;20140;-80
2021/10/09 14:10:24;;;;;;;5.88;3.10;;;;;;;18.31;45.56;100200.47;2333673;69;20100;-81
2021/10/09 14:13:28;;;;;;;6.74;3.30;;;;;;;18.24;45.60;100199.75;2355639;68;20242;-80
2021/10/09 14:16:31;;;;;;;3.69;3.15;;;;;;;18.20;45.84;100199.88;2340937;68;20165;-80
2021/10/09 14:19:34;;;;;;;4.43;2.70;;;;;;;18.14;45.99;100200.00;2340143;68;20120;-81
2021/10/09 14:22:39;;;;;;;5.60;2.95;;;;;;;18.12;45.76;100200.03;2335191;68;20167;-81
2021/10/09 14:25:43;;;;;;;4.45;2.86;;;;;;;18.06;45.79;100198.41;2351244;68;20184;-80
2021/10/09 14:28:46;;;;;;;4.31;3.35;;;;;;;18.05;45.56;100198.44;2335005;68;20100;-80
2021/10/09 14:31:49;;;;;;;6.39;2.97;;;;;;;18.03;46.23;100197.63;2348148;68;20115;-81
2021/10/09 14:35:07;;;;;;;5.05;3.22;;;;;;;18.04;46.82;100194.09;2351035;68;20227;-80
2021/10/09 14:38:15;;;;;;;6.88;2.91;;;;;;;18.00;47.16;100210.81;2322011;69;20147;-78
2021/10/09 14:41:18;;;;;;;3.64;2.45;;;;;;;18.01;46.52;100192.41;2319726;69;20685;-78
2021/10/09 14:44:21;;;;;;;3.61;2.96;;;;;;;17.99;46.59;100196.81;2320890;68;20155;-78
2021/10/09 14:47:35;;;;;;;5.59;3.61;;;;;;;18.00;47.09;100190.66;2317777;65;24798;-78
2021/10/09 15:20:49;;;;;;;6.05;3.47;;;;;;;17.86;46.94;100176.97;2326045;68;20653;-77
2021/10/09 15:23:51;;;;;;;6.95;3.55;;;;;;;17.90;46.53;100177.75;2325959;68;20674;-77
2021/10/09 15:26:54;;;;;;;5.70;3.69;;;;;;;17.92;46.62;100173.31;2325048;68;20619;-78
2021/10/09 15:29:57;;;;;;;5.39;3.16;;;;;;;17.93;46.09;100169.78;2324771;68;21041;-77
2021/10/09 15:33:00;;;;;;;5.05;3.35;;;;;;;18.03;45.95;100181.84;2318440;66;23678;-77
2021/10/09 15:36:03;;;;;;;6.71;3.54;;;;;;;18.09;46.54;100184.31;2326036;68;20154;-77
2021/10/09 15:39:06;;;;;;;5.99;3.76;;;;;;;18.20;46.29;100179.69;2326312;68;20155;-77
2021/10/09 15:42:09;;;;;;;5.64;2.86;;;;;;;18.34;45.87;100187.28;2325888;68;20147;-77
2021/10/09 15:45:12;;;;;;;4.14;2.99;;;;;;;18.43;45.54;100192.31;2325180;68;20158;-77
2021/10/09 15:48:15;;;;;;;3.83;3.24;;;;;;;18.71;45.50;100182.03;2325377;66;22121;-77
2021/10/09 15:51:18;;;;;;;8.07;3.63;;;;;;;19.00;44.87;100181.25;2326728;68;20167;-78
2021/10/09 15:54:20;;;;;;;6.59;3.35;;;;;;;19.15;43.35;100180.88;2321586;68;20170;-78
2021/10/09 15:57:23;;;;;;;5.66;3.35;;;;;;;19.52;42.16;100182.47;2330989;68;20174;-77
2021/10/09 16:00:26;;;;;;;7.81;3.74;;;;;;;19.11;42.41;100183.63;2323128;68;20589;-77
2021/10/09 16:03:28;;;;;;;9.40;3.75;;;;;;;18.39;43.46;100190.66;2326280;68;20570;-77
2021/10/09 16:06:32;;;;;;;7.38;3.60;;;;;;;17.75;44.79;100195.56;2327585;68;20277;-77
2021/10/09 16:09:35;;;;;;;6.63;3.72;;;;;;;17.30;45.69;100196.44;2328746;68;20186;-77
2021/10/09 16:12:38;;;;;;;5.99;3.79;;;;;;;16.89;47.33;100192.81;2327287;68;20147;-77
2021/10/09 16:15:42;;;;;;;9.23;3.99;;;;;;;16.55;48.77;100197.72;2320743;66;81464;-77
2021/10/09 16:18:44;;;;;;;8.00;3.44;;;;;;;16.25;49.36;100192.06;2326679;68;20421;-77
2021/10/09 16:21:49;;;;;;;5.80;3.36;;;;;;;16.02;50.13;100197.63;2327469;68;20192;-76
2021/10/09 16:24:53;;;;;;;10.18;3.97;;;;;;;15.74;52.43;100198.84;2326639;68;20138;-76
2021/10/09 16:27:56;;;;;;;5.69;3.06;;;;;;;15.48;53.03;100204.38;2326679;68;20238;-76
2021/10/09 16:30:59;;;;;;;7.32;3.10;;;;;;;15.21;55.71;100199.44;2323932;66;20992;-76
2021/10/09 16:34:02;;;;;;;5.25;3.31;;;;;;;14.85;57.82;100203.25;2327700;68;20147;-76
2021/10/09 16:37:05;;;;;;;8.52;2.91;;;;;;;14.62;57.30;100201.72;2326330;68;20198;-76
2021/10/09 16:40:08;;;;;;;7.90;3.25;;;;;;;14.44;59.05;100207.06;2326453;68;20147;-76
2021/10/09 16:43:11;;;;;;;4.74;2.95;;;;;;;14.18;60.23;100204.59;2320825;68;20151;-76
2021/10/09 16:46:13;;;;;;;6.60;3.50;;;;;;;13.97;61.33;100210.78;2324547;65;22619;-77
2021/10/09 16:49:17;;;;;;;5.20;3.21;;;;;;;13.65;62.92;100210.97;2326751;68;20677;-77
2021/10/09 16:52:19;;;;;;;6.56;2.88;;;;;;;13.38;63.93;100211.03;2327289;68;20223;-76
2021/10/09 16:55:22;;;;;;;5.86;3.42;;;;;;;13.20;64.99;100214.56;2325062;68;20955;-76
2021/10/09 16:58:24;;;;;;;8.43;3.24;;;;;;;12.97;65.25;100214.56;2326969;68;20154;-76
2021/10/09 17:01:27;;;;;;;5.81;2.90;;;;;;;12.83;65.80;100217.16;2323025;66;29068;-76
2021/10/09 17:04:30;;;;;;;6.51;3.15;;;;;;;12.69;66.82;100224.09;2326805;68;20147;-76
2021/10/09 17:07:33;;;;;;;3.59;2.95;;;;;;;12.57;66.86;100222.38;2327738;68;20180;-76
2021/10/09 17:10:37;;;;;;;8.45;4.03;;;;;;;12.44;66.84;100225.84;2327243;68;20223;-78
2021/10/09 17:13:40;;;;;;;6.16;4.26;;;;;;;12.44;65.04;100220.63;2327962;68;20662;-77
2021/10/09 17:16:42;;;;;;;5.76;4.09;;;;;;;12.39;64.87;100223.22;2325786;66;28512;-76
2021/10/09 17:19:50;;;;;;;6.40;4.13;;;;;;;12.36;64.07;100224.94;2326681;68;20151;-77
2021/10/09 17:22:53;;;;;;;8.77;3.96;;;;;;;12.40;63.35;100232.78;2327434;68;20147;-76
2021/10/09 17:25:56;;;;;;;4.68;3.42;;;;;;;12.40;63.77;100230.19;2328533;68;20147;-76
2021/10/09 17:28:58;;;;;;;6.10;3.90;;;;;;;12.35;64.44;100231.88;2326743;68;20177;-76
2021/10/09 17:32:01;;;;;;;5.76;3.58;;;;;;;12.31;64.63;100242.28;2325943;66;30195;-76
2021/10/09 17:35:05;;;;;;;5.25;3.59;;;;;;;12.22;65.04;100248.38;2327102;68;20163;-76
2021/10/09 17:38:08;;;;;;;5.45;3.63;;;;;;;12.11;66.27;100250.06;2327381;68;20163;-76
2021/10/09 17:41:11;;;;;;;8.01;3.19;;;;;;;11.91;67.78;100249.13;2325858;68;20350;-76
2021/10/09 17:44:14;;;;;;;7.88;3.25;;;;;;;11.67;69.01;100255.94;2326838;68;20188;-76
2021/10/09 17:47:17;;;;;;;7.06;3.30;;;;;;;11.46;69.97;100248.00;2324505;65;69337;-76
2021/10/09 17:50:26;;;;;;;5.68;3.05;;;;;;;11.22;71.12;100261.72;2326982;68;20688;-76
2021/10/09 17:53:29;;;;;;;;;;;;;;;11.02;72.00;100255.50;2325374;68;20191;-76
2021/10/09 17:56:32;;;;;;;4.22;2.65;;;;;;;10.83;72.77;100263.16;2325842;68;20090;-76
2021/10/09 17:59:34;;;;;;;3.65;3.08;;;;;;;10.66;73.68;100258.66;2326456;68;20516;-76
2021/10/09 18:02:38;;;;;;;4.35;3.09;;;;;;;10.51;74.40;100257.66;2322298;66;20954;-76
2021/10/09 18:05:41;;;;;;;5.85;3.45;;;;;;;10.41;75.15;100267.91;2324319;68;20169;-76
2021/10/09 18:08:45;;;;;;;5.32;3.71;;;;;;;10.31;75.78;100261.78;2320569;68;20204;-76
2021/10/09 18:11:47;;;;;;;6.56;3.56;;;;;;;10.21;76.06;100257.31;2326405;68;20592;-78
2021/10/09 18:14:50;;;;;;;5.86;3.64;;;;;;;10.12;76.28;100263.28;2326749;68;20147;-77
2021/10/09 18:17:52;;;;;;;8.16;3.75;;;;;;;10.04;76.73;100257.09;2324425;66;23576;-77
2021/10/09 18:21:13;;;;;;;5.25;3.56;;;;;;;9.97;77.32;100263.09;2325328;68;20199;-77
2021/10/09 18:24:16;;;;;;;4.19;2.95;;;;;;;9.89;77.48;100255.22;2324035;68;20155;-76
2021/10/09 18:27:18;;;;;;;6.14;3.97;;;;;;;9.81;77.76;100255.97;2324963;68;20178;-76
2021/10/09 18:30:21;;;;;;;7.81;4.21;;;;;;;9.74;78.11;100252.44;2324383;66;23368;-76
2021/10/09 18:33:24;;;;;;;6.41;3.92;;;;;;;9.66;78.18;100259.22;2327444;68;20238;-76
2021/10/09 18:36:27;;;;;;;6.19;4.30;;;;;;;9.59;78.63;100260.88;2326784;68;20692;-76
2021/10/09 18:39:29;;;;;;;6.41;4.31;;;;;;;9.49;79.21;100261.59;2324220;68;20186;-76
2021/10/09 18:42:32;;;;;;;6.91;4.51;;;;;;;9.43;79.46;100266.69;2326083;68;20150;-76
2021/10/09 18:45:38;;;;;;;7.15;4.10;;;;;;;9.35;79.94;100265.72;2325362;66;21563;-76
2021/10/09 18:48:41;;;;;;;8.65;4.86;;;;;;;9.31;80.46;100274.28;2326386;68;20671;-76
2021/10/09 18:51:44;;;;;;;6.89;4.72;;;;;;;9.28;80.26;100280.31;2326257;68;20150;-76
2021/10/09 18:54:47;;;;;;;7.47;4.59;;;;;;;9.19;80.05;100275.00;2326813;68;20860;-76
2021/10/09 18:57:49;;;;;;;7.72;4.65;;;;;;;9.13;80.51;100285.25;2326683;68;20220;-76
2021/10/09 19:00:52;;;;;;;6.74;4.47;;;;;;;9.08;80.67;100287.75;2323976;66;37722;-76
2021/10/09 19:03:55;;;;;;;5.25;4.56;;;;;;;9.06;81.25;100289.47;2326583;68;20206;-76
2021/10/09 19:06:57;;;;;;;6.10;4.28;;;;;;;9.05;81.41;100287.72;2326137;68;20290;-76
2021/10/09 19:10:00;;;;;;;7.22;4.43;;;;;;;9.00;81.63;100286.78;2326319;68;20139;-76
2021/10/09 19:13:03;;;;;;;5.55;4.61;;;;;;;8.98;81.91;100296.25;2325443;68;20176;-76
2021/10/09 19:16:06;;;;;;;6.59;4.25;;;;;;;8.93;81.78;100289.22;2325088;66;22384;-76
2021/10/09 19:19:09;;;;;;;8.81;4.50;;;;;;;8.87;81.46;100292.59;2325405;68;20236;-76
2021/10/09 19:22:12;;;;;;;7.03;4.49;;;;;;;8.79;81.75;100305.41;2325832;68;20273;-76
2021/10/09 19:25:15;;;;;;;5.13;4.20;;;;;;;8.72;82.09;100294.91;2325158;68;20833;-76
2021/10/09 19:28:18;;;;;;;9.27;3.83;;;;;;;8.65;82.06;100300.84;2325997;68;20147;-76
2021/10/09 19:31:20;;;;;;;5.97;4.06;;;;;;;8.59;81.85;100304.19;2324246;65;51068;-76
2021/10/09 19:34:36;;;;;;;5.99;4.25;;;;;;;8.50;81.93;100295.38;2325980;68;20208;-76
2021/10/09 19:37:39;;;;;;;4.91;3.39;;;;;;;8.43;82.02;100297.84;2325617;68;20151;-76
2021/10/09 19:40:46;;;;;;;7.39;4.36;;;;;;;8.36;82.21;100303.75;2325149;68;20861;-77
2021/10/09 19:43:52;;;;;;;4.89;4.45;;;;;;;8.33;82.55;100313.16;2325623;68;20154;-77
2021/10/09 19:46:56;;;;;;;5.14;4.21;;;;;;;8.30;82.79;100316.56;2324243;66;38787;-77
2021/10/09 19:50:03;;;;;;;6.06;4.50;;;;;;;8.28;83.04;100318.25;2327052;68;20172;-77
2021/10/09 19:53:26;;;;;;;6.81;4.20;;;;;;;8.23;82.96;100314.66;2324332;68;20306;-77
2021/10/09 19:56:29;;;;;;;7.49;4.35;;;;;;;8.21;82.77;100320.66;2326193;68;20287;-77
2021/10/09 19:59:33;;;;;;;6.21;4.40;;;;;;;8.12;82.60;100318.78;2326482;68;20166;-77
2021/10/09 20:02:36;;;;;;;6.76;4.68;;;;;;;8.08;82.86;100322.16;2314502;67;20287;-77
2021/10/09 20:05:41;;;;;;;8.15;4.49;;;;;;;8.02;82.57;100316.84;2319590;68;20181;-77
2021/10/09 20:08:53;;;;;;;6.65;4.96;;;;;;;7.95;82.78;100321.00;2320835;69;20378;-77
2021/10/09 20:12:35;;;;;;;7.46;4.47;;;;;;;7.95;82.69;100327.91;2318911;69;20284;-77
2021/10/09 20:15:25;;;;;;;7.75;4.84;;;;;;;7.90;82.54;100325.22;2315244;66;21172;-77
2021/10/09 20:18:27;;;;;;;8.43;4.63;;;;;;;7.79;82.25;100324.97;2319393;69;21233;-77
2021/10/09 20:21:37;;;;;;;7.91;5.13;;;;;;;7.74;82.52;100328.31;2318681;69;21222;-77
2021/10/09 20:24:42;;;;;;;11.80;4.85;;;;;;;7.67;82.49;100329.00;2317160;68;20377;-77
2021/10/09 20:27:45;;;;;;;6.03;4.65;;;;;;;7.61;82.72;100328.88;2319753;69;20323;-77
2021/10/09 20:30:47;;;;;;;9.00;5.16;;;;;;;7.60;82.80;100333.16;2317038;65;24387;-77
2021/10/09 20:33:50;;;;;;;13.30;5.16;;;;;;;7.58;83.16;100335.72;2319681;68;20280;-76
2021/10/09 20:36:52;;;;;;;7.68;5.04;;;;;;;7.60;83.60;100338.34;2323496;68;20426;-77
2021/10/09 20:39:55;;;;;;;6.74;4.71;;;;;;;7.58;84.05;100346.06;2321062;69;20811;-77
2021/10/09 20:43:07;;;;;;;6.56;4.79;;;;;;;7.53;84.15;100344.19;2318946;69;20781;-77
2021/10/09 20:46:10;;;;;;;7.53;4.81;;;;;;;7.46;83.77;100345.75;2317805;66;49129;-77
2021/10/09 20:49:12;;;;;;;7.21;5.46;;;;;;;7.40;83.69;100344.75;2318703;69;20425;-77
2021/10/09 20:52:15;;;;;;;6.14;4.59;;;;;;;7.35;83.62;100354.09;2319770;69;20310;-77
2021/10/09 20:55:18;;;;;;;7.57;4.66;;;;;;;7.27;83.66;100352.22;2319468;68;20408;-77
2021/10/09 20:58:20;;;;;;;6.26;3.83;;;;;;;7.23;83.75;100352.97;2320374;69;20308;-77